createdAt,value
2018-11-06T00:01:10.879Z,99551.32
2018-11-06T00:03:43.407Z,99554.38
2018-11-06T00:06:10.669Z,99559.50
2018-11-06T00:08:37.604Z,99559.72
2018-11-06T00:11:05.436Z,99550.70
2018-11-06T00:13:32.319Z,99556.99
2018-11-06T00:15:59.246Z,99555.88
2018-11-06T00:18:26.202Z,99561.80
2018-11-06T00:20:53.143Z,99565.69
2018-11-06T00:23:20.087Z,99560.48
2018-11-06T00:25:47.035Z,99551.83
2018-11-06T00:28:13.966Z,99544.11
2018-11-06T00:30:40.916Z,99541.61
2018-11-06T00:33:08.794Z,99548.86
2018-11-06T00:35:35.744Z,99547.56
2018-11-06T00:38:02.682Z,99547.76
2018-11-06T00:40:29.618Z,99546.34
2018-11-06T00:42:56.574Z,99542.97
2018-11-06T00:45:23.528Z,99549.48
2018-11-06T00:47:50.499Z,99552.26
2018-11-06T00:50:17.406Z,99541.56
2018-11-06T00:52:44.390Z,99535.31
2018-11-06T00:55:11.409Z,99542.03
2018-11-06T00:57:39.691Z,99549.34
2018-11-06T01:00:08.850Z,99546.45
2018-11-06T01:02:35.855Z,99541.22
2018-11-06T01:05:02.814Z,99539.44
2018-11-06T01:07:29.694Z,99535.06
2018-11-06T01:09:56.640Z,99536.13
2018-11-06T01:12:23.651Z,99536.11
2018-11-06T01:14:50.539Z,99536.59
2018-11-06T01:17:17.490Z,99530.09
2018-11-06T01:19:44.423Z,99536.59
2018-11-06T01:22:11.376Z,99541.09
2018-11-06T01:24:38.333Z,99551.00
2018-11-06T01:27:05.383Z,99554.27
2018-11-06T01:29:32.325Z,99558.19
2018-11-06T01:31:59.247Z,99564.21
2018-11-06T01:34:26.198Z,99561.75
2018-11-06T01:36:53.142Z,99563.86
2018-11-06T01:39:20.079Z,99557.70
2018-11-06T01:41:47.026Z,99558.59
2018-11-06T01:44:15.726Z,99556.84
2018-11-06T01:46:42.722Z,99555.45
2018-11-06T01:49:10.729Z,99554.39
2018-11-06T01:51:37.722Z,99560.33
2018-11-06T01:54:04.650Z,99558.30
2018-11-06T01:56:31.566Z,99551.77
2018-11-06T01:58:58.518Z,99545.50
2018-11-06T02:01:25.899Z,99533.55
2018-11-06T02:03:52.801Z,99531.42
2018-11-06T02:06:19.762Z,99531.57
2018-11-06T02:08:46.697Z,99531.80
2018-11-06T02:11:13.638Z,99535.63
2018-11-06T02:13:40.582Z,99540.28
2018-11-06T02:16:07.931Z,99530.64
2018-11-06T02:18:34.883Z,99528.59
2018-11-06T02:21:02.750Z,99529.74
2018-11-06T02:23:29.743Z,99526.68
2018-11-06T02:25:56.650Z,99525.45
2018-11-06T02:28:23.595Z,99517.75
2018-11-06T02:30:50.536Z,99511.43
2018-11-06T02:33:17.479Z,99518.90
2018-11-06T02:35:44.432Z,99532.02
2018-11-06T02:38:11.439Z,99522.31
2018-11-06T02:40:38.322Z,99514.08
2018-11-06T02:43:05.295Z,99512.30
2018-11-06T02:45:32.201Z,99516.03
2018-11-06T02:47:59.201Z,99510.27
2018-11-06T02:50:27.131Z,99509.09
2018-11-06T02:52:54.067Z,99505.91
2018-11-06T02:55:21.004Z,99508.72
2018-11-06T02:57:47.947Z,99508.57
2018-11-06T03:00:16.019Z,99510.53
2018-11-06T03:02:44.805Z,99525.47
2018-11-06T03:05:11.750Z,99532.72
2018-11-06T03:07:38.895Z,99527.20
2018-11-06T03:10:06.339Z,99527.20
2018-11-06T03:12:33.219Z,99532.09
2018-11-06T03:15:00.239Z,99537.11
2018-11-06T03:17:27.199Z,99538.36
2018-11-06T03:19:54.135Z,99549.83
2018-11-06T03:22:21.091Z,99554.83
2018-11-06T03:24:48.036Z,99557.62
2018-11-06T03:27:15.994Z,99563.61
2018-11-06T03:29:42.980Z,99559.67
2018-11-06T03:32:09.885Z,99564.67
2018-11-06T03:34:36.835Z,99559.01
2018-11-06T03:37:04.139Z,99556.36
2018-11-06T03:39:31.037Z,99551.97
2018-11-06T03:41:57.979Z,99556.50
2018-11-06T03:44:24.915Z,99558.31
2018-11-06T03:46:51.863Z,99548.44
2018-11-06T03:49:18.811Z,99552.84
2018-11-06T03:51:45.747Z,99546.76
2018-11-06T03:54:12.699Z,99536.48
2018-11-06T03:56:39.643Z,99534.16
2018-11-06T03:59:06.585Z,99543.03
2018-11-06T04:01:33.639Z,99533.64
2018-11-06T04:04:00.500Z,99541.59
2018-11-06T04:06:27.419Z,99541.41
2018-11-06T04:08:54.382Z,99539.16
2018-11-06T04:11:21.331Z,99528.98
2018-11-06T04:13:48.275Z,99521.98
2018-11-06T04:16:16.242Z,99524.84
2018-11-06T04:18:44.200Z,99516.38
2018-11-06T04:21:11.150Z,99518.92
2018-11-06T04:23:39.152Z,99524.18
2018-11-06T04:26:06.050Z,99535.12
2018-11-06T04:28:32.995Z,99540.27
2018-11-06T04:30:59.935Z,99537.70
2018-11-06T04:33:26.905Z,99543.81
2018-11-06T04:35:53.827Z,99538.55
2018-11-06T04:38:20.809Z,99528.86
2018-11-06T04:40:47.719Z,99531.27
2018-11-06T04:43:14.662Z,99518.17
2018-11-06T04:45:41.606Z,99507.52
2018-11-06T04:48:08.552Z,99500.13
2018-11-06T04:50:35.554Z,99497.41
2018-11-06T04:53:02.451Z,99495.63
2018-11-06T04:55:30.324Z,99488.23
2018-11-06T04:57:57.259Z,99499.07
2018-11-06T05:00:24.256Z,99498.69
2018-11-06T05:02:51.147Z,99494.62
2018-11-06T05:05:18.099Z,99495.33
2018-11-06T05:07:45.055Z,99498.40
2018-11-06T05:10:13.193Z,99502.61
2018-11-06T05:12:40.162Z,99492.05
2018-11-06T05:15:08.938Z,99491.94
2018-11-06T05:17:35.883Z,99490.93
2018-11-06T05:20:03.292Z,99496.44
2018-11-06T05:22:30.207Z,99500.94
2018-11-06T05:24:57.122Z,99491.51
2018-11-06T05:27:24.154Z,99495.92
2018-11-06T05:29:51.075Z,99489.08
2018-11-06T05:32:17.967Z,99490.37
2018-11-06T05:34:44.939Z,99481.87
2018-11-06T05:37:11.867Z,99473.78
2018-11-06T05:39:50.319Z,99470.33
2018-11-06T05:42:17.227Z,99471.58
2018-11-06T05:44:45.191Z,99471.61
2018-11-06T05:47:12.181Z,99474.67
2018-11-06T05:49:42.612Z,99477.66
2018-11-06T05:52:09.525Z,99481.48
2018-11-06T05:54:38.414Z,99478.09
2018-11-06T05:57:06.408Z,99476.75
2018-11-06T05:59:33.312Z,99479.56
2018-11-06T06:02:01.298Z,99486.36
2018-11-06T06:04:28.220Z,99495.70
2018-11-06T06:06:55.167Z,99501.29
2018-11-06T06:09:22.115Z,99493.93
2018-11-06T06:11:49.051Z,99493.68
2018-11-06T06:14:16.011Z,99496.18
2018-11-06T06:16:44.000Z,99495.03
2018-11-06T06:19:10.911Z,99504.78
2018-11-06T06:21:37.879Z,99501.38
2018-11-06T06:24:04.803Z,99506.69
2018-11-06T06:26:31.756Z,99502.20
2018-11-06T06:28:58.704Z,99503.20
2018-11-06T06:31:25.645Z,99503.88
2018-11-06T06:33:52.604Z,99501.34
2018-11-06T06:36:20.543Z,99510.19
2018-11-06T06:38:47.558Z,99513.92
2018-11-06T06:41:14.468Z,99513.30
2018-11-06T06:43:41.404Z,99510.28
2018-11-06T06:46:08.377Z,99521.73
2018-11-06T06:48:35.295Z,99526.61
2018-11-06T06:51:02.215Z,99530.53
2018-11-06T06:53:29.162Z,99529.33
2018-11-06T06:55:56.110Z,99527.37
2018-11-06T06:58:23.071Z,99527.04
2018-11-06T07:00:49.999Z,99527.66
2018-11-06T07:03:16.950Z,99535.47
2018-11-06T07:05:43.890Z,99535.14
2018-11-06T07:08:10.850Z,99538.39
2018-11-06T07:10:37.786Z,99524.99
2018-11-06T07:13:04.836Z,99524.41
2018-11-06T07:15:31.676Z,99518.95
2018-11-06T07:17:58.616Z,99519.71
2018-11-06T07:20:25.776Z,99524.03
2018-11-06T07:22:52.848Z,99531.59
2018-11-06T07:25:19.759Z,99537.91
2018-11-06T07:27:47.310Z,99541.19
2018-11-06T07:30:15.780Z,99533.64
2018-11-06T07:32:43.348Z,99534.30
2018-11-06T07:35:10.994Z,99534.61
2018-11-06T07:37:38.667Z,99534.90
2018-11-06T07:40:06.042Z,99540.28
2018-11-06T07:42:32.982Z,99537.16
2018-11-06T07:44:59.926Z,99542.22
2018-11-06T07:47:26.970Z,99543.66
2018-11-06T07:49:53.967Z,99540.19
2018-11-06T07:52:20.847Z,99535.37
2018-11-06T07:54:47.795Z,99523.83
2018-11-06T07:57:14.734Z,99522.69
2018-11-06T07:59:41.687Z,99524.12
2018-11-06T08:02:08.623Z,99517.19
2018-11-06T08:04:35.579Z,99512.25
2018-11-06T08:07:02.528Z,99519.72
2018-11-06T08:09:29.532Z,99516.52
2018-11-06T08:11:56.419Z,99520.25
2018-11-06T08:14:23.415Z,99522.48
2018-11-06T08:16:50.304Z,99518.91
2018-11-06T08:19:17.555Z,99518.66
2018-11-06T08:21:44.523Z,99522.58
2018-11-06T08:24:11.414Z,99523.76
2018-11-06T08:26:38.296Z,99533.53
2018-11-06T08:29:05.234Z,99529.96
2018-11-06T08:31:32.541Z,99530.54
2018-11-06T08:33:59.140Z,99524.13
2018-11-06T08:36:26.143Z,99520.88
2018-11-06T08:38:53.007Z,99519.58
2018-11-06T08:41:19.947Z,99516.81
2018-11-06T08:43:46.907Z,99511.39
2018-11-06T08:46:13.848Z,99513.27
2018-11-06T08:48:40.835Z,99506.50
2018-11-06T08:51:07.731Z,99515.59
2018-11-06T08:53:34.691Z,99504.39
2018-11-06T08:56:01.668Z,99501.51
2018-11-06T08:58:28.573Z,99495.00
2018-11-06T09:00:55.512Z,99495.00
2018-11-06T09:03:22.463Z,99501.27
2018-11-06T09:05:49.411Z,99503.34
2018-11-06T09:08:16.401Z,99510.36
2018-11-06T09:10:43.297Z,99518.09
2018-11-06T09:13:10.231Z,99510.15
2018-11-06T09:15:37.179Z,99509.61
2018-11-06T09:18:04.151Z,99508.55
2018-11-06T09:20:31.084Z,99504.27
2018-11-06T09:22:58.024Z,99508.15
2018-11-06T09:25:24.952Z,99510.53
2018-11-06T09:27:51.898Z,99506.80
2018-11-06T09:30:19.250Z,99504.30
2018-11-06T09:32:46.217Z,99507.34
2018-11-06T09:35:13.704Z,99508.88
2018-11-06T09:37:41.127Z,99509.69
2018-11-06T09:40:09.794Z,99503.88
2018-11-06T09:42:36.759Z,99505.69
2018-11-06T09:45:03.984Z,99500.84
2018-11-06T09:47:30.934Z,99498.55
2018-11-06T09:49:57.883Z,99497.86
2018-11-06T09:52:24.911Z,99496.74
2018-11-06T09:54:51.771Z,99501.94
2018-11-06T09:57:18.723Z,99494.70
2018-11-06T09:59:45.679Z,99501.14
2018-11-06T10:02:12.627Z,99501.80
2018-11-06T10:04:39.563Z,99495.06
2018-11-06T10:07:06.979Z,99494.89
2018-11-06T10:09:33.670Z,99498.11
2018-11-06T10:12:00.601Z,99493.62
2018-11-06T10:14:27.545Z,99493.14
2018-11-06T10:16:54.490Z,99498.55
2018-11-06T10:19:21.435Z,99488.95
2018-11-06T10:21:48.379Z,99486.69
2018-11-06T10:24:15.311Z,99482.47
2018-11-06T10:26:42.283Z,99479.62
2018-11-06T10:29:09.206Z,99480.05
2018-11-06T10:31:36.456Z,99474.34
2018-11-06T10:34:03.607Z,99465.63
2018-11-06T10:36:30.565Z,99453.00
2018-11-06T10:38:57.507Z,99446.09
2018-11-06T10:41:24.483Z,99449.16
2018-11-06T10:43:51.383Z,99444.55
2018-11-06T10:46:18.349Z,99446.35
2018-11-06T10:48:45.314Z,99447.63
2018-11-06T10:51:12.255Z,99441.08
2018-11-06T10:53:39.162Z,99441.79
2018-11-06T10:56:06.123Z,99446.43
2018-11-06T10:58:33.163Z,99443.86
2018-11-06T11:01:05.927Z,99450.34
2018-11-06T11:03:35.320Z,99431.64
2018-11-06T11:06:02.203Z,99428.42
2018-11-06T11:08:29.130Z,99425.67
2018-11-06T11:10:56.096Z,99422.91
2018-11-06T11:13:23.068Z,99423.82
2018-11-06T11:15:51.011Z,99411.88
2018-11-06T11:18:17.939Z,99409.88
2018-11-06T11:20:44.939Z,99405.23
2018-11-06T11:23:11.847Z,99396.97
2018-11-06T11:25:38.865Z,99398.95
2018-11-06T11:28:05.719Z,99391.78
2018-11-06T11:30:32.678Z,99396.73
2018-11-06T11:32:59.598Z,99391.24
2018-11-06T11:35:26.563Z,99396.95
2018-11-06T11:37:53.561Z,99394.86
2018-11-06T11:40:20.447Z,99397.14
2018-11-06T11:42:47.387Z,99398.11
2018-11-06T11:45:14.940Z,99393.28
2018-11-06T11:47:41.793Z,99392.78
2018-11-06T11:50:10.571Z,99395.67
2018-11-06T11:52:37.823Z,99391.95
2018-11-06T11:55:05.357Z,99390.02
2018-11-06T11:57:32.223Z,99391.94
2018-11-06T11:59:59.201Z,99385.28
2018-11-06T12:02:26.132Z,99380.72
2018-11-06T12:04:53.142Z,99382.38
2018-11-06T12:07:20.122Z,99381.26
2018-11-06T12:09:47.076Z,99381.55
2018-11-06T12:12:14.046Z,99383.97
2018-11-06T12:14:40.992Z,99377.02
2018-11-06T12:17:07.920Z,99375.69
2018-11-06T12:19:34.850Z,99378.60
2018-11-06T12:22:01.783Z,99377.27
2018-11-06T12:24:28.816Z,99368.16
2018-11-06T12:26:55.662Z,99370.31
2018-11-06T12:29:22.631Z,99357.45
2018-11-06T12:31:49.550Z,99360.29
2018-11-06T12:34:16.538Z,99355.77
2018-11-06T12:36:43.461Z,99362.19
2018-11-06T12:39:11.107Z,99363.41
2018-11-06T12:41:38.558Z,99366.55
2018-11-06T12:44:05.634Z,99358.28
2018-11-06T12:46:32.546Z,99356.20
2018-11-06T12:48:59.491Z,99350.71
2018-11-06T12:51:26.454Z,99340.33
2018-11-06T12:53:53.384Z,99341.53
2018-11-06T12:56:20.290Z,99340.48
2018-11-06T12:58:47.180Z,99343.09
2018-11-06T13:01:14.123Z,99333.80
2018-11-06T13:03:41.071Z,99325.75
2018-11-06T13:06:08.029Z,99323.43
2018-11-06T13:08:34.959Z,99322.23
2018-11-06T13:11:01.937Z,99315.63
2018-11-06T13:13:28.895Z,99317.42
2018-11-06T13:15:55.822Z,99316.45
2018-11-06T13:18:22.731Z,99320.28
2018-11-06T13:20:49.687Z,99329.94
2018-11-06T13:23:16.623Z,99323.45
2018-11-06T13:25:43.679Z,99315.94
2018-11-06T13:28:10.530Z,99316.11
2018-11-06T13:30:37.563Z,99314.01
2018-11-06T13:33:04.615Z,99311.67
2018-11-06T13:35:31.611Z,99316.55
2018-11-06T13:37:58.690Z,99312.89
2018-11-06T13:40:25.545Z,99310.81
2018-11-06T13:42:52.714Z,99320.00
2018-11-06T13:45:21.236Z,99330.20
2018-11-06T13:47:48.035Z,99337.87
2018-11-06T13:50:14.988Z,99340.50
2018-11-06T13:52:41.917Z,99330.79
2018-11-06T13:55:10.079Z,99329.55
2018-11-06T13:57:37.075Z,99329.95
2018-11-06T14:00:13.201Z,99330.87
2018-11-06T14:02:40.126Z,99351.18
2018-11-06T14:05:07.094Z,99349.00
2018-11-06T14:07:34.226Z,99336.41
2018-11-06T14:10:01.174Z,99340.79
2018-11-06T14:12:28.123Z,99350.22
2018-11-06T14:14:55.090Z,99365.77
2018-11-06T14:17:22.023Z,99371.03
2018-11-06T14:19:48.954Z,99371.59
2018-11-06T14:22:15.899Z,99368.19
2018-11-06T14:24:42.856Z,99378.75
2018-11-06T14:27:09.883Z,99372.73
2018-11-06T14:29:36.738Z,99370.30
2018-11-06T14:32:03.684Z,99367.52
2018-11-06T14:34:30.631Z,99373.63
2018-11-06T14:36:57.601Z,99382.08
2018-11-06T14:39:24.528Z,99392.14
2018-11-06T14:41:51.468Z,99410.72
2018-11-06T14:44:18.407Z,99405.78
2018-11-06T14:46:45.353Z,99414.22
2018-11-06T14:49:12.300Z,99426.48
2018-11-06T14:51:39.228Z,99428.06
2018-11-06T14:54:06.264Z,99423.81
2018-11-06T14:56:33.169Z,99417.88
2018-11-06T14:59:00.089Z,99427.11
2018-11-06T15:01:27.218Z,99427.08
2018-11-06T15:03:54.379Z,99436.78
2018-11-06T15:06:21.319Z,99443.97
2018-11-06T15:08:48.263Z,99457.64
2018-11-06T15:11:15.216Z,99469.56
2018-11-06T15:13:42.156Z,99462.75
2018-11-06T15:16:09.107Z,99461.79
2018-11-06T15:18:36.974Z,99471.23
2018-11-06T15:21:04.135Z,99480.16
2018-11-06T15:23:31.074Z,99481.31
2018-11-06T15:25:58.007Z,99493.17
2018-11-06T15:28:24.951Z,99489.44
2018-11-06T15:30:51.894Z,99491.56
2018-11-06T15:33:18.879Z,99501.28
2018-11-06T15:35:46.819Z,99504.38
2018-11-06T15:38:13.759Z,99489.77
2018-11-06T15:40:40.917Z,99507.63
2018-11-06T15:43:07.844Z,99504.54
2018-11-06T15:45:34.863Z,99500.14
2018-11-06T15:48:01.740Z,99500.92
2018-11-06T15:50:28.697Z,99509.34
2018-11-06T15:52:55.618Z,99518.78
2018-11-06T15:55:22.610Z,99526.34
2018-11-06T15:57:49.565Z,99525.41
2018-11-06T16:00:18.556Z,99527.55
2018-11-06T16:02:45.826Z,99533.59
2018-11-06T16:05:13.008Z,99537.75
2018-11-06T16:07:40.053Z,99546.03
2018-11-06T16:10:09.812Z,99547.17
2018-11-06T16:12:36.707Z,99550.09
2018-11-06T16:15:04.161Z,99558.33
2018-11-06T16:17:31.031Z,99557.94
2018-11-06T16:19:58.103Z,99567.20
2018-11-06T16:22:25.043Z,99567.93
2018-11-06T16:24:51.973Z,99580.20
2018-11-06T16:27:18.907Z,99572.48
2018-11-06T16:29:45.898Z,99574.10
2018-11-06T16:32:12.802Z,99583.27
2018-11-06T16:34:39.750Z,99586.59
2018-11-06T16:37:06.674Z,99590.66
2018-11-06T16:39:33.672Z,99599.08
2018-11-06T16:42:00.572Z,99603.31
2018-11-06T16:44:27.510Z,99596.50
2018-11-06T16:46:55.376Z,99601.93
2018-11-06T16:49:22.336Z,99610.99
2018-11-06T16:51:49.266Z,99614.30
2018-11-06T16:54:16.238Z,99610.99
2018-11-06T16:56:43.162Z,99615.41
2018-11-06T16:59:10.106Z,99615.39
2018-11-06T17:01:37.058Z,99633.09
2018-11-06T17:04:04.174Z,99630.66
2018-11-06T17:06:36.990Z,99631.30
2018-11-06T17:09:06.411Z,99651.35
2018-11-06T17:11:33.373Z,99651.98
2018-11-06T17:14:00.272Z,99660.07
2018-11-06T17:16:27.428Z,99663.27
2018-11-06T17:18:54.525Z,99663.93
2018-11-06T17:21:21.540Z,99659.28
2018-11-06T17:23:49.640Z,99670.87
2018-11-06T17:26:16.695Z,99687.51
2018-11-06T17:28:43.763Z,99704.94
2018-11-06T17:31:10.794Z,99697.91
2018-11-06T17:33:38.804Z,99696.02
2018-11-06T17:36:06.181Z,99683.77
2018-11-06T17:38:33.322Z,99686.73
2018-11-06T17:41:00.381Z,99692.25
2018-11-06T17:43:27.655Z,99697.04
2018-11-06T17:45:54.692Z,99691.67
2018-11-06T17:48:21.803Z,99700.88
2018-11-06T17:50:48.873Z,99705.55
2018-11-06T17:53:16.314Z,99703.95
2018-11-06T17:55:43.396Z,99711.61
2018-11-06T17:58:11.420Z,99706.39
2018-11-06T18:00:38.554Z,99710.61
2018-11-06T18:03:05.686Z,99709.02
2018-11-06T18:05:32.630Z,99721.70
2018-11-06T18:07:59.629Z,99715.37
2018-11-06T18:10:26.666Z,99722.18
2018-11-06T18:12:53.848Z,99717.25
2018-11-06T18:15:20.927Z,99718.84
2018-11-06T18:17:48.165Z,99712.09
2018-11-06T18:20:15.344Z,99710.95
2018-11-06T18:22:43.967Z,99710.46
2018-11-06T18:25:11.851Z,99712.23
2018-11-06T18:27:38.916Z,99710.88
2018-11-06T18:30:09.281Z,99718.19
2018-11-06T18:32:36.252Z,99722.02
2018-11-06T18:35:03.831Z,99717.88
2018-11-06T18:37:31.382Z,99713.87
2018-11-06T18:39:58.467Z,99707.20
2018-11-06T18:42:25.503Z,99714.33
2018-11-06T18:44:52.647Z,99709.16
2018-11-06T18:47:19.704Z,99717.45
2018-11-06T18:49:47.996Z,99711.27
2018-11-06T18:52:15.359Z,99708.59
2018-11-06T18:54:42.492Z,99714.34
2018-11-06T18:57:09.516Z,99710.18
2018-11-06T18:59:36.594Z,99704.59
2018-11-06T19:02:04.280Z,99703.33
2018-11-06T19:04:31.443Z,99693.42
2018-11-06T19:06:58.663Z,99705.09
2018-11-06T19:09:25.701Z,99699.73
2018-11-06T19:11:52.799Z,99701.38
2018-11-06T19:14:20.908Z,99710.17
2018-11-06T19:16:47.978Z,99707.20
2018-11-06T19:19:14.953Z,99714.89
2018-11-06T19:21:42.042Z,99706.84
2018-11-06T19:24:09.215Z,99711.13
2018-11-06T19:26:36.142Z,99714.59
2018-11-06T19:29:03.173Z,99708.83
2018-11-06T19:31:30.220Z,99709.16
2018-11-06T19:33:57.284Z,99719.85
2018-11-06T19:36:25.072Z,99727.63
2018-11-06T19:38:52.079Z,99726.63
2018-11-06T19:41:19.238Z,99732.38
2018-11-06T19:43:46.226Z,99730.94
2018-11-06T19:46:13.296Z,99734.19
2018-11-06T19:48:40.385Z,99725.33
2018-11-06T19:51:07.403Z,99719.34
2018-11-06T19:53:34.618Z,99727.17
2018-11-06T19:56:01.627Z,99729.22
2018-11-06T19:58:28.686Z,99740.40
2018-11-06T20:00:56.506Z,99724.30
2018-11-06T20:03:23.602Z,99735.63
2018-11-06T20:05:50.641Z,99735.56
2018-11-06T20:08:17.660Z,99726.48
2018-11-06T20:10:45.580Z,99719.60
2018-11-06T20:13:12.720Z,99723.64
2018-11-06T20:15:39.914Z,99730.22
2018-11-06T20:18:06.948Z,99724.70
2018-11-06T20:20:34.873Z,99723.67
2018-11-06T20:23:01.923Z,99729.70
2018-11-06T20:25:28.958Z,99726.81
2018-11-06T20:27:56.046Z,99729.45
2018-11-06T20:30:24.601Z,99724.45
2018-11-06T20:32:51.663Z,99720.86
2018-11-06T20:35:19.648Z,99721.87
2018-11-06T20:37:46.623Z,99732.53
2018-11-06T20:40:16.551Z,99733.52
2018-11-06T20:42:44.226Z,99720.07
2018-11-06T20:45:12.487Z,99720.89
2018-11-06T20:47:39.809Z,99721.13
2018-11-06T20:50:10.589Z,99722.61
2018-11-06T20:52:37.517Z,99724.24
2018-11-06T20:55:05.422Z,99719.39
2018-11-06T20:57:32.437Z,99714.81
2018-11-06T20:59:59.495Z,99720.05
2018-11-06T21:02:27.881Z,99722.50
2018-11-06T21:04:55.575Z,99714.55
2018-11-06T21:07:23.628Z,99717.67
2018-11-06T21:09:50.895Z,99724.39
2018-11-06T21:12:18.021Z,99730.70
2018-11-06T21:14:45.012Z,99729.52
2018-11-06T21:17:12.088Z,99736.38
2018-11-06T21:19:39.165Z,99733.90
2018-11-06T21:22:07.928Z,99734.81
2018-11-06T21:24:34.994Z,99728.05
2018-11-06T21:27:01.990Z,99724.93
2018-11-06T21:29:29.213Z,99734.94
2018-11-06T21:31:56.388Z,99735.34
2018-11-06T21:34:23.467Z,99740.08
2018-11-06T21:36:50.528Z,99747.86
2018-11-06T21:39:17.636Z,99754.89
2018-11-06T21:41:44.590Z,99743.73
2018-11-06T21:44:12.544Z,99741.84
2018-11-06T21:46:40.488Z,99738.23
2018-11-06T21:49:07.431Z,99740.23
2018-11-06T21:51:34.451Z,99747.11
2018-11-06T21:54:01.357Z,99749.01
2018-11-06T21:56:28.275Z,99753.44
2018-11-06T21:58:55.241Z,99759.70
2018-11-06T22:01:22.181Z,99772.85
2018-11-06T22:03:49.170Z,99774.95
2018-11-06T22:06:16.086Z,99778.89
2018-11-06T22:08:42.992Z,99782.59
2018-11-06T22:11:09.938Z,99782.35
2018-11-06T22:13:36.907Z,99785.20
2018-11-06T22:16:03.854Z,99780.78
2018-11-06T22:18:30.788Z,99786.64
2018-11-06T22:20:57.786Z,99781.94
2018-11-06T22:23:24.688Z,99776.06
2018-11-06T22:25:51.615Z,99772.51
2018-11-06T22:28:18.555Z,99772.73
2018-11-06T22:30:45.495Z,99777.03
2018-11-06T22:33:12.518Z,99778.81
2018-11-06T22:35:39.407Z,99773.41
2018-11-06T22:38:06.389Z,99777.11
2018-11-06T22:40:33.276Z,99777.42
2018-11-06T22:43:00.219Z,99786.20
2018-11-06T22:45:27.162Z,99786.53
2018-11-06T22:47:54.119Z,99787.25
2018-11-06T22:50:21.092Z,99783.03
2018-11-06T22:52:48.507Z,99785.29
2018-11-06T22:55:15.603Z,99789.70
2018-11-06T22:57:43.815Z,99778.89
2018-11-06T23:00:16.518Z,99783.66
2018-11-06T23:02:43.570Z,99776.63
2018-11-06T23:05:10.524Z,99777.57
2018-11-06T23:07:43.230Z,99781.08
2018-11-06T23:10:10.530Z,99785.24
2018-11-06T23:12:38.939Z,99780.59
2018-11-06T23:15:06.140Z,99771.04
2018-11-06T23:17:33.010Z,99770.05
2018-11-06T23:19:59.955Z,99766.73
2018-11-06T23:22:26.920Z,99768.76
2018-11-06T23:24:53.912Z,99779.70
2018-11-06T23:27:20.799Z,99777.73
2018-11-06T23:29:47.734Z,99777.01
2018-11-06T23:32:14.690Z,99781.14
2018-11-06T23:34:41.624Z,99780.16
2018-11-06T23:37:08.595Z,99779.65
2018-11-06T23:39:35.518Z,99776.38
2018-11-06T23:42:02.488Z,99770.63
2018-11-06T23:44:29.418Z,99784.05
2018-11-06T23:46:56.364Z,99783.62
2018-11-06T23:49:24.271Z,99786.66
2018-11-06T23:51:51.176Z,99790.34
2018-11-06T23:54:18.119Z,99782.42
2018-11-06T23:56:45.078Z,99777.56
2018-11-06T23:59:12.007Z,99777.56
